This is the latest recevied weather packets stored in our database for station/object WX5RP. If no packets are shown the sender has not sent any weather packets the latest 10 day(s).
| Time | Temp. | Humidity | Pressure | Rain* | Wind** | Luminosity | Snow |
|---|---|---|---|---|---|---|---|
| 1777802116 | 6.11° C | 76% | 1016.7 hPa | 0 mm | - | 0 W/m² | - |
| 1777801516 | 6.67° C | 76% | 1017 hPa | 0 mm | - | 0 W/m² | - |
| 1777800916 | 6.67° C | 75% | 1017.1 hPa | 0 mm | - | 0 W/m² | - |
| 1777800315 | 6.67° C | 76% | 1017.1 hPa | 0 mm | - | 0 W/m² | - |
| 1777799716 | 7.22° C | 76% | 1017.4 hPa | 0 mm | - | 0 W/m² | - |
| 1777799115 | 7.78° C | 75% | 1017 hPa | 0 mm | - | 0 W/m² | - |
| 1777798515 | 7.78° C | 74% | 1017.6 hPa | 0 mm | - | 0 W/m² | - |
| 1777797916 | 7.22° C | 73% | 1017 hPa | 0 mm | - | 0 W/m² | - |
| 1777797315 | 7.22° C | 74% | 1017.3 hPa | 0 mm | - | 0 W/m² | - |
| 1777796715 | 7.22° C | 74% | 1017.3 hPa | 0 mm | - | 0 W/m² | - |
| 1777796115 | 7.78° C | 73% | 1017.6 hPa | 0 mm | - | 0 W/m² | - |
| 1777795517 | 7.78° C | 73% | 1017 hPa | 0 mm | - | 0 W/m² | - |
| 1777794917 | 8.89° C | 67% | 1017 hPa | 0 mm | - | 0 W/m² | - |
| 1777794315 | 8.89° C | 67% | 1017 hPa | 0 mm | - | 0 W/m² | - |
| 1777793717 | 9.44° C | 68% | 1017 hPa | 0 mm | - | 0 W/m² | - |
| 1777793117 | 9.44° C | 66% | 1017.1 hPa | 0 mm | - | 0 W/m² | - |
| 1777792517 | 10° C | 64% | 1016.9 hPa | 0 mm | - | 0 W/m² | - |
| 1777791917 | 10° C | 65% | 1017.4 hPa | 0 mm | - | 0 W/m² | - |
| 1777791317 | 8.89° C | 69% | 1017 hPa | 0 mm | - | 0 W/m² | - |
| 1777790718 | 10° C | 66% | 1017 hPa | 0 mm | - | 0 W/m² | - |
| 1777790117 | 10° C | 69% | 1017 hPa | 0 mm | - | 0 W/m² | - |
| 1777789516 | 10° C | 68% | 1016.7 hPa | 0 mm | - | 0 W/m² | - |
| 1777788916 | 10.56° C | 67% | 1016.7 hPa | 0 mm | - | 0 W/m² | - |
| 1777788316 | 11.11° C | 64% | 1016.7 hPa | 0 mm | - | 0 W/m² | - |
| 1777787716 | 12.22° C | 60% | 1016.4 hPa | 0 mm | - | 0 W/m² | - |
* Rain latest hour (hover to see other rain measurements)
** Current wind speed in m/s (hover to see current wind gust speed)